Nearby METAR Reports

 

KALB - Albany, New York, USA
Distance from station: E 47mi, 75km
Updated: Sun, 25-Sep-2022 2:51am EDT
Mostly cloudy
Mostly cloudy
 Wind from calm
Wind: Calm
Temperature: 48°F , 9°C
Dew Point: 46°F , 8°C
Humidity: 94%
Barometer: 29.84 inHg , 1010.5 hPa
Clouds: Mostly cloudy
Visibility: 10 miles , 16 km
Cloud details: Mostly cloudy 12000 ft
2022/09/25 06:51 KALB 250651Z 00000KT 10SM BKN120 09/08 A2984 RMK AO2 SLP105 T00940078
KSLK - Saranac Lake, New York, USA
Distance from station: N 110mi, 177km
Updated: Sun, 25-Sep-2022 2:51am EDT
Mostly cloudy
Mostly cloudy
 Wind from calm
Wind: Calm
Temperature: 43°F , 6°C
Dew Point: 39°F , 4°C
Humidity: 87%
Barometer: 29.80 inHg , 1009.1 hPa
Clouds: Mostly cloudy
Visibility: 10 miles , 16 km
Cloud details: Mostly cloudy 12000 ft
2022/09/25 06:51 KSLK 250651Z AUTO 00000KT 10SM BKN120 06/04 A2980 RMK AO2 SLP093 T00560044
 
KSYR - Syracuse, New York, USA
Distance from station: W 73mi, 117km
Updated: Sun, 25-Sep-2022 2:54am EDT
Overcast
Overcast
 Wind from E
Wind: E 5 mph , 7 km/h
Temperature: 54°F , 12°C
Dew Point: 48°F , 9°C
Humidity: 82%
Barometer: 29.80 inHg , 1009.1 hPa
Clouds: Overcast
Visibility: 10 miles , 16 km
Cloud details: Mostly cloudy 7000 ft
Overcast 13000 ft
2022/09/25 06:54 KSYR 250654Z 09004KT 10SM BKN070 OVC130 12/09 A2980 RMK AO2 SLP089 T01170089
KBGM - Binghamton, New York, USA
Distance from station: SW 78mi, 126km
Updated: Sun, 25-Sep-2022 2:53am EDT
Overcast
Overcast
 Wind from S
Wind: S 3 mph , 6 km/h
Temperature: 52°F , 11°C
Dew Point: 45°F , 7°C
Humidity: 77%
Barometer: 29.82 inHg , 1009.8 hPa
Clouds: Overcast
Visibility: 10 miles , 16 km
Cloud details: Mostly cloudy 4800 ft
Overcast 11000 ft
2022/09/25 06:53 KBGM 250653Z AUTO 18003KT 10SM BKN048 OVC110 11/07 A2982 RMK AO2 SLP097 T01060067 $
 
KRME - Rome, New York, USA
Distance from station: WNW 43mi, 69km
Updated: Sun, 25-Sep-2022 2:53am EDT
Light rain, Mostly cloudy
Light rain, Mostly cloudy
 Wind from SE
Wind: SE 6 mph , 9 km/h
Temperature: 48°F , 9°C
Wind Chill: 45°F , 7°C
Dew Point: 46°F , 8°C
Humidity: 94%
Barometer: 29.83 inHg , 1010.2 hPa
Summary: Light rain
Clouds: Mostly cloudy
Visibility: 10 miles , 16 km
Cloud details: Few Clouds 4500 ft
Mostly cloudy 9000 ft
Mostly cloudy 11000 ft
2022/09/25 06:53 KRME 250653Z AUTO 14005KT 10SM -RA FEW045 BKN090 BKN110 09/08 A2983 RMK AO2 RAB48 SLP100 P0000 T00940083
KJFK - New York, New York, USA
Distance from station: SSE 159mi, 256km
Updated: Sun, 25-Sep-2022 2:51am EDT
Overcast
Overcast
 Wind from WSW
Wind: WSW 6 mph , 9 km/h
Temperature: 63°F , 17°C
Dew Point: 48°F , 9°C
Humidity: 59%
Barometer: 29.88 inHg , 1011.9 hPa
Clouds: Overcast
Visibility: 10 miles , 16 km
Cloud details: Mostly cloudy 8000 ft
Overcast 11000 ft
2022/09/25 06:51 KJFK 250651Z 24005KT 10SM BKN080 OVC110 17/09 A2988 RMK AO2 SLP117 T01670094 $
 
KROC - Rochester, New York, USA
Distance from station: W 150mi, 242km
Updated: Sun, 25-Sep-2022 2:54am EDT
Overcast
Overcast
 Wind from S
Wind: S 3 mph , 6 km/h
Temperature: 55°F , 13°C
Dew Point: 50°F , 10°C
Humidity: 82%
Barometer: 29.77 inHg , 1008.1 hPa
Clouds: Overcast
Visibility: 10 miles , 16 km
Cloud details: Mostly cloudy 7500 ft
Overcast 11000 ft
2022/09/25 06:54 KROC 250654Z 17003KT 10SM BKN075 OVC110 13/10 A2977 RMK AO2 SLP084 T01280100
KART - Watertown, New York, USA
Distance from station: NNW 103mi, 166km
Updated: Sun, 25-Sep-2022 2:56am EDT
Overcast
Overcast
 Wind from calm
Wind: Calm
Temperature: 54°F , 12°C
Dew Point: 48°F , 9°C
Humidity: 82%
Barometer: 29.78 inHg , 1008.5 hPa
Clouds: Overcast
Visibility: 10 miles , 16 km
Cloud details: Few Clouds 3400 ft
Overcast 8500 ft
2022/09/25 06:56 KART 250656Z AUTO 00000KT 10SM FEW034 OVC085 12/09 A2978 RMK AO2 RAE0558 SLP084 P0000 T01220089 TSNO
 
KELM - Elmira-Corning, New York, USA
Distance from station: SSW 121mi, 195km
Updated: Sun, 25-Sep-2022 2:53am EDT
Overcast
Overcast
 Wind from calm
Wind: Calm
Temperature: 54°F , 12°C
Dew Point: 52°F , 11°C
Humidity: 94%
Barometer: 29.81 inHg , 1009.5 hPa
Clouds: Overcast
Visibility: 10 miles , 16 km
Cloud details: Overcast 6000 ft
2022/09/25 06:53 KELM 250653Z AUTO 00000KT 10SM OVC060 12/11 A2981 RMK AO2 SLP091 T01170106 $
KJHW - Jamestown, New York, USA
Distance from station: SW 238mi, 383km
Updated: Sun, 25-Sep-2022 2:56am EDT
Mostly cloudy
Mostly cloudy
 Wind from SSE
Wind: SSE 6 mph , 9 km/h
Temperature: 52°F , 11°C
Dew Point: 48°F , 9°C
Humidity: 88%
Barometer: 29.77 inHg , 1008.1 hPa
Clouds: Mostly cloudy
Visibility: 10 miles , 16 km
Cloud details: Mostly cloudy 11000 ft
2022/09/25 06:56 KJHW 250656Z AUTO 16005KT 10SM BKN110 11/09 A2977 RMK AO2 RAE08 SLP085 P0000 T01060094
 
KMSS - Massena, New York, USA
Distance from station: N 141mi, 232km
Updated: Sun, 25-Sep-2022 2:53am EDT
Mostly cloudy
Mostly cloudy
 Wind from SW
Wind: SW 5 mph , 7 km/h
Temperature: 54°F , 12°C
Dew Point: 46°F , 8°C
Humidity: 77%
Barometer: 29.79 inHg , 1008.8 hPa
Clouds: Mostly cloudy
Visibility: 10 miles , 16 km
Cloud details: Mostly cloudy 12000 ft
2022/09/25 06:53 KMSS 250653Z AUTO 23004KT 10SM BKN120 12/08 A2979 RMK AO2 SLP087 T01170083
KBUF - Buffalo, New York, USA
Distance from station: W 204mi, 328km
Updated: Sun, 25-Sep-2022 2:54am EDT
Overcast
Overcast
 Wind from SSE
Wind: SSE 8 mph , 13 km/h
Temperature: 57°F , 14°C
Dew Point: 48°F , 9°C
Humidity: 72%
Barometer: 29.74 inHg , 1007.1 hPa
Clouds: Overcast
Visibility: 10 miles , 16 km
Cloud details: Mostly cloudy 5500 ft
Overcast 13000 ft
2022/09/25 06:54 KBUF 250654Z 16007KT 10SM BKN055 OVC130 14/09 A2974 RMK AO2 SLP070 T01440094 $